Portada
METAR-TAF:

METAR-TAF

Aeropuertos :

Lleida-Alguaire

Lérida, España

latitud: 41-43-40N, longitud: 000-32-09E, altitud: 350 m

Observación

El informe se hizo hace 27 minutos, a las 19:30 UTC
Viento 2 kt del este-noreste
Temperatura 15°C
Humedad 94%
Presión 1015 hPa
Visibilidad 10 km o más
Escasas nubes a una altura de 1500 ft

METAR: LEDA 241930Z 07002KT 9999 FEW015 15/14 Q1015

Hora: 21:57 (19:57 UTC)


TAF: falta

Observaciones y pronósticos meteorológicos de más de 4000 aeropuertos (mensajes METAR y TAF).

Los puntos amarillos y rojos representan las estaciones disponibles.

Ponga el ratón en el punto deseado para ver el nombre de la estación.

Haga clic para ver las observaciones y los pronósticos meteorológicos.

Para cambiar el mapa : haga clic en los botones verdes con una cruz de color negro para hacer un zoom, en el botón verde con un guión para alejar o en las flechas verdes para mapas adyacentes.


METAR-TAF: